sensor_id;sensor_type;location;lat;lon;timestamp;pressure;altitude;pressure_sealevel;temperature;humidity
10652;BME280;5374;42.742;23.266;2022-09-29T00:00:37;94552.66;;;16.16;100.00
10652;BME280;5374;42.742;23.266;2022-09-29T00:03:24;94561.06;;;16.23;100.00
10652;BME280;5374;42.742;23.266;2022-09-29T00:06:13;94523.28;;;16.02;100.00
10652;BME280;5374;42.742;23.266;2022-09-29T00:09:01;94537.44;;;16.03;100.00
10652;BME280;5374;42.742;23.266;2022-09-29T00:11:48;94553.44;;;16.17;100.00
10652;BME280;5374;42.742;23.266;2022-09-29T00:14:37;94545.94;;;16.05;100.00
10652;BME280;5374;42.742;23.266;2022-09-29T00:17:24;94536.91;;;15.92;100.00
10652;BME280;5374;42.742;23.266;2022-09-29T00:20:12;94553.38;;;16.08;100.00
10652;BME280;5374;42.742;23.266;2022-09-29T00:22:59;94545.22;;;16.13;100.00
10652;BME280;5374;42.742;23.266;2022-09-29T00:25:46;94546.81;;;16.14;100.00
10652;BME280;5374;42.742;23.266;2022-09-29T00:28:34;94551.31;;;16.05;100.00
10652;BME280;5374;42.742;23.266;2022-09-29T00:31:25;94541.34;;;15.97;100.00
10652;BME280;5374;42.742;23.266;2022-09-29T00:34:13;94545.50;;;16.03;100.00
10652;BME280;5374;42.742;23.266;2022-09-29T00:37:00;94545.31;;;15.99;100.00
10652;BME280;5374;42.742;23.266;2022-09-29T00:39:47;94550.34;;;16.01;100.00
10652;BME280;5374;42.742;23.266;2022-09-29T00:42:35;94546.88;;;16.00;100.00
10652;BME280;5374;42.742;23.266;2022-09-29T00:45:23;94544.50;;;15.99;100.00
10652;BME280;5374;42.742;23.266;2022-09-29T00:48:13;94540.56;;;15.96;100.00
10652;BME280;5374;42.742;23.266;2022-09-29T00:51:04;94545.31;;;15.99;100.00
10652;BME280;5374;42.742;23.266;2022-09-29T00:53:52;94547.38;;;16.02;100.00
10652;BME280;5374;42.742;23.266;2022-09-29T00:56:40;94520.75;;;15.84;100.00
10652;BME280;5374;42.742;23.266;2022-09-29T00:59:32;94532.16;;;15.89;100.00
10652;BME280;5374;42.742;23.266;2022-09-29T01:02:21;94538.78;;;15.92;100.00
10652;BME280;5374;42.742;23.266;2022-09-29T01:05:15;94542.19;;;15.84;100.00
10652;BME280;5374;42.742;23.266;2022-09-29T01:08:10;94545.53;;;15.89;100.00
10652;BME280;5374;42.742;23.266;2022-09-29T01:11:01;94536.66;;;15.80;100.00
10652;BME280;5374;42.742;23.266;2022-09-29T01:13:48;94537.69;;;15.70;100.00
10652;BME280;5374;42.742;23.266;2022-09-29T01:16:37;94534.41;;;15.73;100.00
10652;BME280;5374;42.742;23.266;2022-09-29T01:19:32;94546.31;;;15.67;100.00
10652;BME280;5374;42.742;23.266;2022-09-29T01:22:47;94544.13;;;15.69;100.00
10652;BME280;5374;42.742;23.266;2022-09-29T01:25:52;94553.50;;;15.58;100.00
10652;BME280;5374;42.742;23.266;2022-09-29T01:29:02;94557.66;;;15.51;100.00
10652;BME280;5374;42.742;23.266;2022-09-29T01:31:56;94552.09;;;15.47;100.00
10652;BME280;5374;42.742;23.266;2022-09-29T01:34:52;94552.22;;;15.42;100.00
10652;BME280;5374;42.742;23.266;2022-09-29T01:37:55;94559.16;;;15.43;100.00
10652;BME280;5374;42.742;23.266;2022-09-29T01:40:47;94562.63;;;15.44;100.00
10652;BME280;5374;42.742;23.266;2022-09-29T01:43:41;94546.91;;;15.28;100.00
10652;BME280;5374;42.742;23.266;2022-09-29T01:46:35;94566.47;;;15.37;100.00
10652;BME280;5374;42.742;23.266;2022-09-29T01:49:28;94558.00;;;15.35;100.00
10652;BME280;5374;42.742;23.266;2022-09-29T01:52:20;94561.94;;;15.38;100.00
10652;BME280;5374;42.742;23.266;2022-09-29T01:55:11;94567.13;;;15.34;100.00
10652;BME280;5374;42.742;23.266;2022-09-29T01:58:01;94564.13;;;15.36;100.00
10652;BME280;5374;42.742;23.266;2022-09-29T02:00:55;94565.69;;;15.37;100.00
10652;BME280;5374;42.742;23.266;2022-09-29T02:03:47;94558.09;;;15.30;100.00
10652;BME280;5374;42.742;23.266;2022-09-29T02:06:42;94549.69;;;15.23;100.00
10652;BME280;5374;42.742;23.266;2022-09-29T02:09:34;94561.75;;;15.34;100.00
10652;BME280;5374;42.742;23.266;2022-09-29T02:12:24;94522.69;;;15.11;100.00
10652;BME280;5374;42.742;23.266;2022-09-29T02:15:17;94560.97;;;15.34;100.00
10652;BME280;5374;42.742;23.266;2022-09-29T02:18:08;94566.19;;;15.39;100.00
10652;BME280;5374;42.742;23.266;2022-09-29T02:20:56;94576.19;;;15.47;100.00
10652;BME280;5374;42.742;23.266;2022-09-29T02:23:45;94578.25;;;15.50;100.00
10652;BME280;5374;42.742;23.266;2022-09-29T02:26:33;94566.28;;;15.48;100.00
10652;BME280;5374;42.742;23.266;2022-09-29T02:29:20;94561.13;;;15.51;100.00
10652;BME280;5374;42.742;23.266;2022-09-29T02:32:08;94557.47;;;15.47;100.00
10652;BME280;5374;42.742;23.266;2022-09-29T02:34:55;94554.97;;;15.51;100.00
10652;BME280;5374;42.742;23.266;2022-09-29T02:37:55;94550.72;;;15.50;100.00
10652;BME280;5374;42.742;23.266;2022-09-29T02:40:55;94553.81;;;15.57;100.00
10652;BME280;5374;42.742;23.266;2022-09-29T02:44:04;94555.91;;;15.32;100.00
10652;BME280;5374;42.742;23.266;2022-09-29T02:47:16;94541.16;;;15.35;100.00
10652;BME280;5374;42.742;23.266;2022-09-29T02:50:40;94528.19;;;15.28;100.00
10652;BME280;5374;42.742;23.266;2022-09-29T02:53:38;94530.88;;;15.15;100.00
10652;BME280;5374;42.742;23.266;2022-09-29T02:56:37;94535.13;;;15.16;100.00
10652;BME280;5374;42.742;23.266;2022-09-29T02:59:29;94534.63;;;15.14;100.00
10652;BME280;5374;42.742;23.266;2022-09-29T03:02:23;94519.81;;;14.94;100.00
10652;BME280;5374;42.742;23.266;2022-09-29T03:05:12;94542.97;;;14.98;100.00
10652;BME280;5374;42.742;23.266;2022-09-29T03:08:00;94550.91;;;15.03;100.00
10652;BME280;5374;42.742;23.266;2022-09-29T03:10:47;94553.09;;;15.01;100.00
10652;BME280;5374;42.742;23.266;2022-09-29T03:13:36;94563.78;;;15.01;100.00
10652;BME280;5374;42.742;23.266;2022-09-29T03:16:24;94562.59;;;14.94;100.00
10652;BME280;5374;42.742;23.266;2022-09-29T03:19:11;94566.53;;;14.96;100.00
10652;BME280;5374;42.742;23.266;2022-09-29T03:21:58;94564.38;;;14.98;100.00
10652;BME280;5374;42.742;23.266;2022-09-29T03:24:45;94575.66;;;14.95;100.00
10652;BME280;5374;42.742;23.266;2022-09-29T03:27:33;94590.91;;;14.95;100.00
10652;BME280;5374;42.742;23.266;2022-09-29T03:30:22;94613.19;;;14.90;100.00
10652;BME280;5374;42.742;23.266;2022-09-29T03:33:10;94606.16;;;14.81;100.00
10652;BME280;5374;42.742;23.266;2022-09-29T03:35:57;94612.22;;;14.86;100.00
10652;BME280;5374;42.742;23.266;2022-09-29T03:38:44;94612.00;;;14.83;100.00
10652;BME280;5374;42.742;23.266;2022-09-29T03:41:33;94611.97;;;14.69;100.00
10652;BME280;5374;42.742;23.266;2022-09-29T03:44:20;94614.63;;;14.69;100.00
10652;BME280;5374;42.742;23.266;2022-09-29T03:47:09;94614.56;;;14.74;100.00
10652;BME280;5374;42.742;23.266;2022-09-29T03:49:56;94594.38;;;14.68;100.00
10652;BME280;5374;42.742;23.266;2022-09-29T03:52:43;94599.22;;;14.66;100.00
10652;BME280;5374;42.742;23.266;2022-09-29T03:55:30;94612.09;;;14.64;100.00
10652;BME280;5374;42.742;23.266;2022-09-29T03:58:17;94591.78;;;14.63;100.00
10652;BME280;5374;42.742;23.266;2022-09-29T04:01:05;94590.28;;;14.57;100.00
10652;BME280;5374;42.742;23.266;2022-09-29T04:03:53;94602.16;;;14.51;100.00
10652;BME280;5374;42.742;23.266;2022-09-29T04:06:40;94585.53;;;14.54;100.00
10652;BME280;5374;42.742;23.266;2022-09-29T04:09:28;94582.88;;;14.54;100.00
10652;BME280;5374;42.742;23.266;2022-09-29T04:12:15;94590.28;;;14.57;100.00
10652;BME280;5374;42.742;23.266;2022-09-29T04:15:03;94583.75;;;14.49;100.00
10652;BME280;5374;42.742;23.266;2022-09-29T04:17:50;94582.44;;;14.47;100.00
10652;BME280;5374;42.742;23.266;2022-09-29T04:20:39;94580.78;;;14.51;100.00
10652;BME280;5374;42.742;23.266;2022-09-29T04:23:26;94564.38;;;14.44;100.00
10652;BME280;5374;42.742;23.266;2022-09-29T04:26:15;94569.09;;;14.47;100.00
10652;BME280;5374;42.742;23.266;2022-09-29T04:29:02;94565.34;;;14.48;100.00
10652;BME280;5374;42.742;23.266;2022-09-29T04:31:49;94574.81;;;14.40;100.00
10652;BME280;5374;42.742;23.266;2022-09-29T04:34:36;94567.84;;;14.25;100.00
10652;BME280;5374;42.742;23.266;2022-09-29T04:37:25;94578.94;;;14.32;100.00
10652;BME280;5374;42.742;23.266;2022-09-29T04:40:12;94582.13;;;14.34;100.00
10652;BME280;5374;42.742;23.266;2022-09-29T04:43:00;94588.03;;;14.31;100.00
10652;BME280;5374;42.742;23.266;2022-09-29T04:45:48;94579.53;;;14.29;100.00
10652;BME280;5374;42.742;23.266;2022-09-29T04:48:35;94572.38;;;14.25;100.00
10652;BME280;5374;42.742;23.266;2022-09-29T04:51:25;94560.13;;;14.24;100.00
10652;BME280;5374;42.742;23.266;2022-09-29T04:54:14;94572.59;;;14.28;100.00
10652;BME280;5374;42.742;23.266;2022-09-29T04:57:01;94571.00;;;14.27;100.00
10652;BME280;5374;42.742;23.266;2022-09-29T04:59:49;94582.13;;;14.34;100.00
10652;BME280;5374;42.742;23.266;2022-09-29T05:02:36;94584.03;;;14.48;100.00
10652;BME280;5374;42.742;23.266;2022-09-29T05:05:24;94588.91;;;14.59;100.00
10652;BME280;5374;42.742;23.266;2022-09-29T05:08:11;94588.03;;;14.64;100.00
10652;BME280;5374;42.742;23.266;2022-09-29T05:11:03;94570.72;;;14.75;100.00
10652;BME280;5374;42.742;23.266;2022-09-29T05:13:50;94579.44;;;15.94;100.00
10652;BME280;5374;42.742;23.266;2022-09-29T05:16:37;94573.50;;;20.18;100.00
10652;BME280;5374;42.742;23.266;2022-09-29T05:19:25;94582.50;;;24.18;62.94
10652;BME280;5374;42.742;23.266;2022-09-29T05:22:12;94599.22;;;27.26;49.85
10652;BME280;5374;42.742;23.266;2022-09-29T05:24:59;94617.09;;;29.63;40.92
10652;BME280;5374;42.742;23.266;2022-09-29T05:27:47;94626.41;;;31.82;36.62
10652;BME280;5374;42.742;23.266;2022-09-29T05:30:34;94627.53;;;34.05;32.28
10652;BME280;5374;42.742;23.266;2022-09-29T05:33:22;94617.91;;;35.84;29.58
10652;BME280;5374;42.742;23.266;2022-09-29T05:36:11;94636.56;;;37.41;27.00
10652;BME280;5374;42.742;23.266;2022-09-29T05:38:58;94631.91;;;38.92;25.36
10652;BME280;5374;42.742;23.266;2022-09-29T05:41:47;94629.38;;;39.60;24.12
10652;BME280;5374;42.742;23.266;2022-09-29T05:44:35;94637.34;;;40.65;23.46
10652;BME280;5374;42.742;23.266;2022-09-29T05:47:22;94637.31;;;41.11;22.66
10652;BME280;5374;42.742;23.266;2022-09-29T05:50:10;94617.50;;;41.93;21.83
10652;BME280;5374;42.742;23.266;2022-09-29T05:53:01;94632.13;;;43.13;20.39
10652;BME280;5374;42.742;23.266;2022-09-29T05:55:49;94632.94;;;44.48;19.51
10652;BME280;5374;42.742;23.266;2022-09-29T05:58:36;94612.09;;;45.21;19.02
10652;BME280;5374;42.742;23.266;2022-09-29T06:01:25;94609.03;;;45.51;18.73
10652;BME280;5374;42.742;23.266;2022-09-29T06:04:13;94602.69;;;46.36;17.77
10652;BME280;5374;42.742;23.266;2022-09-29T06:07:02;94592.22;;;47.57;16.79
10652;BME280;5374;42.742;23.266;2022-09-29T06:09:49;94597.53;;;48.80;15.79
10652;BME280;5374;42.742;23.266;2022-09-29T06:12:36;94602.41;;;48.05;15.86
10652;BME280;5374;42.742;23.266;2022-09-29T06:15:23;94597.47;;;48.91;15.18
10652;BME280;5374;42.742;23.266;2022-09-29T06:18:12;94587.88;;;47.50;15.68
10652;BME280;5374;42.742;23.266;2022-09-29T06:21:00;94594.00;;;47.71;15.77
10652;BME280;5374;42.742;23.266;2022-09-29T06:23:49;94582.16;;;46.78;16.20
10652;BME280;5374;42.742;23.266;2022-09-29T06:26:36;94595.63;;;46.51;15.85
10652;BME280;5374;42.742;23.266;2022-09-29T06:29:23;94606.06;;;47.55;15.39
10652;BME280;5374;42.742;23.266;2022-09-29T06:32:12;94607.50;;;47.00;15.64
10652;BME280;5374;42.742;23.266;2022-09-29T06:35:00;94606.56;;;47.48;15.99
10652;BME280;5374;42.742;23.266;2022-09-29T06:38:05;94602.75;;;48.59;14.78
10652;BME280;5374;42.742;23.266;2022-09-29T06:40:52;94604.09;;;48.52;14.69
10652;BME280;5374;42.742;23.266;2022-09-29T06:43:39;94607.53;;;48.12;15.44
10652;BME280;5374;42.742;23.266;2022-09-29T06:46:26;94607.44;;;46.78;15.29
10652;BME280;5374;42.742;23.266;2022-09-29T06:49:14;94585.59;;;42.72;18.52
10652;BME280;5374;42.742;23.266;2022-09-29T06:52:02;94596.31;;;39.53;21.28
10652;BME280;5374;42.742;23.266;2022-09-29T06:54:49;94600.75;;;36.22;24.87
10652;BME280;5374;42.742;23.266;2022-09-29T06:57:37;94606.81;;;34.40;27.43
10652;BME280;5374;42.742;23.266;2022-09-29T07:00:25;94614.28;;;33.19;29.43
10652;BME280;5374;42.742;23.266;2022-09-29T07:03:12;94618.72;;;32.08;31.42
10652;BME280;5374;42.742;23.266;2022-09-29T07:06:01;94612.94;;;30.81;32.72
10652;BME280;5374;42.742;23.266;2022-09-29T07:08:54;94617.03;;;30.26;34.42
10652;BME280;5374;42.742;23.266;2022-09-29T07:11:42;94619.03;;;29.83;35.85
10652;BME280;5374;42.742;23.266;2022-09-29T07:14:31;94609.25;;;29.82;35.77
10652;BME280;5374;42.742;23.266;2022-09-29T07:17:18;94607.72;;;29.53;36.48
10652;BME280;5374;42.742;23.266;2022-09-29T07:20:06;94605.31;;;29.05;36.98
10652;BME280;5374;42.742;23.266;2022-09-29T07:22:54;94599.03;;;28.87;37.31
10652;BME280;5374;42.742;23.266;2022-09-29T07:25:45;94596.09;;;28.37;38.54
10652;BME280;5374;42.742;23.266;2022-09-29T07:28:33;94596.81;;;28.27;39.65
10652;BME280;5374;42.742;23.266;2022-09-29T07:31:20;94597.75;;;27.90;39.63
10652;BME280;5374;42.742;23.266;2022-09-29T07:34:07;94598.88;;;27.79;39.17
10652;BME280;5374;42.742;23.266;2022-09-29T07:36:55;94592.97;;;27.73;39.54
10652;BME280;5374;42.742;23.266;2022-09-29T07:39:42;94599.09;;;27.15;41.26
10652;BME280;5374;42.742;23.266;2022-09-29T07:42:30;94593.75;;;26.85;41.95
10652;BME280;5374;42.742;23.266;2022-09-29T07:45:18;94606.94;;;26.50;42.47
10652;BME280;5374;42.742;23.266;2022-09-29T07:48:05;94606.53;;;26.18;43.03
10652;BME280;5374;42.742;23.266;2022-09-29T07:50:59;94611.28;;;25.95;43.86
10652;BME280;5374;42.742;23.266;2022-09-29T07:53:47;94612.53;;;25.74;44.76
10652;BME280;5374;42.742;23.266;2022-09-29T07:56:34;94611.22;;;25.65;45.71
10652;BME280;5374;42.742;23.266;2022-09-29T07:59:22;94626.53;;;25.53;46.15
10652;BME280;5374;42.742;23.266;2022-09-29T08:02:10;94631.34;;;25.37;46.29
10652;BME280;5374;42.742;23.266;2022-09-29T08:04:57;94632.03;;;25.57;45.89
10652;BME280;5374;42.742;23.266;2022-09-29T08:07:50;94631.09;;;25.46;45.95
10652;BME280;5374;42.742;23.266;2022-09-29T08:10:37;94634.66;;;25.50;45.86
10652;BME280;5374;42.742;23.266;2022-09-29T08:13:24;94608.34;;;25.58;46.87
10652;BME280;5374;42.742;23.266;2022-09-29T08:16:13;94635.13;;;25.78;47.03
10652;BME280;5374;42.742;23.266;2022-09-29T08:19:02;94642.91;;;25.80;47.50
10652;BME280;5374;42.742;23.266;2022-09-29T08:21:49;94647.47;;;25.99;45.84
10652;BME280;5374;42.742;23.266;2022-09-29T08:24:37;94648.94;;;25.66;45.03
10652;BME280;5374;42.742;23.266;2022-09-29T08:27:25;94641.06;;;25.61;45.70
10652;BME280;5374;42.742;23.266;2022-09-29T08:30:14;94644.22;;;25.63;46.16
10652;BME280;5374;42.742;23.266;2022-09-29T08:33:03;94643.25;;;25.52;46.29
10652;BME280;5374;42.742;23.266;2022-09-29T08:35:57;94643.91;;;25.45;47.67
10652;BME280;5374;42.742;23.266;2022-09-29T08:38:45;94634.59;;;25.46;46.06
10652;BME280;5374;42.742;23.266;2022-09-29T08:41:45;94635.91;;;25.30;47.28
10652;BME280;5374;42.742;23.266;2022-09-29T08:44:37;94641.06;;;25.15;47.39
10652;BME280;5374;42.742;23.266;2022-09-29T08:47:28;94642.13;;;25.11;47.61
10652;BME280;5374;42.742;23.266;2022-09-29T08:50:24;94636.47;;;25.65;44.94
10652;BME280;5374;42.742;23.266;2022-09-29T08:53:15;94640.13;;;26.03;43.85
10652;BME280;5374;42.742;23.266;2022-09-29T08:56:06;94649.97;;;26.11;44.25
10652;BME280;5374;42.742;23.266;2022-09-29T08:58:55;94650.13;;;26.21;45.11
10652;BME280;5374;42.742;23.266;2022-09-29T09:01:55;94637.41;;;26.03;43.93
10652;BME280;5374;42.742;23.266;2022-09-29T09:05:03;94641.50;;;26.76;42.03
10652;BME280;5374;42.742;23.266;2022-09-29T09:08:00;94642.81;;;26.89;41.71
10652;BME280;5374;42.742;23.266;2022-09-29T09:10:57;94627.25;;;27.27;41.48
10652;BME280;5374;42.742;23.266;2022-09-29T09:13:56;94639.44;;;27.84;39.76
10652;BME280;5374;42.742;23.266;2022-09-29T09:17:02;94636.22;;;28.22;36.61
10652;BME280;5374;42.742;23.266;2022-09-29T09:23:14;94642.94;;;28.43;35.82
10652;BME280;5374;42.742;23.266;2022-09-29T09:26:04;94646.41;;;28.36;36.40
10652;BME280;5374;42.742;23.266;2022-09-29T09:28:54;94633.72;;;28.07;36.20
10652;BME280;5374;42.742;23.266;2022-09-29T09:31:49;94636.09;;;28.12;36.03
10652;BME280;5374;42.742;23.266;2022-09-29T09:34:42;94629.06;;;28.11;36.26
10652;BME280;5374;42.742;23.266;2022-09-29T09:37:33;94631.53;;;28.23;36.29
10652;BME280;5374;42.742;23.266;2022-09-29T09:40:25;94642.44;;;28.27;35.87
10652;BME280;5374;42.742;23.266;2022-09-29T09:43:17;94625.25;;;28.19;35.71
10652;BME280;5374;42.742;23.266;2022-09-29T09:46:12;94635.81;;;28.20;36.69
10652;BME280;5374;42.742;23.266;2022-09-29T09:49:05;94633.03;;;28.17;36.19
10652;BME280;5374;42.742;23.266;2022-09-29T09:52:02;94638.59;;;27.73;36.43
10652;BME280;5374;42.742;23.266;2022-09-29T09:54:52;94632.78;;;27.78;35.27
10652;BME280;5374;42.742;23.266;2022-09-29T09:58:05;94628.69;;;27.57;36.73
10652;BME280;5374;42.742;23.266;2022-09-29T10:00:59;94631.97;;;27.74;36.60
10652;BME280;5374;42.742;23.266;2022-09-29T10:03:47;94636.53;;;27.63;36.31
10652;BME280;5374;42.742;23.266;2022-09-29T10:10:16;94628.50;;;27.36;37.19
10652;BME280;5374;42.742;23.266;2022-09-29T10:13:06;94626.78;;;27.17;36.23
10652;BME280;5374;42.742;23.266;2022-09-29T10:15:59;94626.84;;;27.24;36.84
10652;BME280;5374;42.742;23.266;2022-09-29T10:18:50;94637.59;;;27.51;36.49
10652;BME280;5374;42.742;23.266;2022-09-29T10:21:39;94630.38;;;27.69;36.31
10652;BME280;5374;42.742;23.266;2022-09-29T10:24:28;94629.69;;;27.86;35.47
10652;BME280;5374;42.742;23.266;2022-09-29T10:27:18;94626.56;;;27.84;35.73
10652;BME280;5374;42.742;23.266;2022-09-29T10:30:17;94627.47;;;27.99;35.25
10652;BME280;5374;42.742;23.266;2022-09-29T10:33:12;94632.81;;;27.85;34.70
10652;BME280;5374;42.742;23.266;2022-09-29T10:36:07;94625.81;;;27.40;36.26
10652;BME280;5374;42.742;23.266;2022-09-29T10:38:56;94628.06;;;27.31;37.30
10652;BME280;5374;42.742;23.266;2022-09-29T10:41:49;94618.63;;;27.65;36.69
10652;BME280;5374;42.742;23.266;2022-09-29T10:44:38;94626.56;;;27.84;35.54
10652;BME280;5374;42.742;23.266;2022-09-29T10:47:27;94621.88;;;27.78;35.87
10652;BME280;5374;42.742;23.266;2022-09-29T10:50:16;94614.81;;;27.73;36.73
10652;BME280;5374;42.742;23.266;2022-09-29T10:53:06;94613.97;;;27.66;36.58
10652;BME280;5374;42.742;23.266;2022-09-29T10:56:09;94611.78;;;27.89;36.10
10652;BME280;5374;42.742;23.266;2022-09-29T10:59:02;94611.47;;;28.05;36.61
10652;BME280;5374;42.742;23.266;2022-09-29T11:01:53;94607.34;;;28.29;35.86
10652;BME280;5374;42.742;23.266;2022-09-29T11:04:45;94614.34;;;28.26;34.16
10652;BME280;5374;42.742;23.266;2022-09-29T11:07:32;94600.38;;;28.35;35.14
10652;BME280;5374;42.742;23.266;2022-09-29T11:10:27;94595.78;;;28.60;35.44
10652;BME280;5374;42.742;23.266;2022-09-29T11:13:34;94591.13;;;28.75;33.96
10652;BME280;5374;42.742;23.266;2022-09-29T11:16:27;94601.28;;;28.71;33.58
10652;BME280;5374;42.742;23.266;2022-09-29T11:19:14;94588.78;;;28.66;33.99
10652;BME280;5374;42.742;23.266;2022-09-29T11:22:24;94606.78;;;28.78;34.08
10652;BME280;5374;42.742;23.266;2022-09-29T11:25:31;94597.41;;;28.79;33.83
10652;BME280;5374;42.742;23.266;2022-09-29T11:28:39;94599.34;;;28.75;32.99
10652;BME280;5374;42.742;23.266;2022-09-29T11:31:55;94590.75;;;28.73;33.78
10652;BME280;5374;42.742;23.266;2022-09-29T11:34:58;94590.31;;;28.56;35.29
10652;BME280;5374;42.742;23.266;2022-09-29T11:38:03;94596.53;;;28.50;33.90
10652;BME280;5374;42.742;23.266;2022-09-29T11:41:02;94592.19;;;28.38;34.98
10652;BME280;5374;42.742;23.266;2022-09-29T11:43:53;94590.25;;;28.42;36.03
10652;BME280;5374;42.742;23.266;2022-09-29T11:46:53;94585.16;;;28.34;34.91
10652;BME280;5374;42.742;23.266;2022-09-29T11:49:57;94589.88;;;28.47;33.89
10652;BME280;5374;42.742;23.266;2022-09-29T11:56:17;94594.63;;;28.72;33.33
10652;BME280;5374;42.742;23.266;2022-09-29T11:59:26;94591.22;;;28.89;33.83
10652;BME280;5374;42.742;23.266;2022-09-29T12:05:46;94587.31;;;29.01;32.66
10652;BME280;5374;42.742;23.266;2022-09-29T12:08:53;94587.69;;;28.92;32.94
10652;BME280;5374;42.742;23.266;2022-09-29T12:11:50;94590.75;;;28.66;33.81
10652;BME280;5374;42.742;23.266;2022-09-29T12:14:54;94588.69;;;28.41;33.75
10652;BME280;5374;42.742;23.266;2022-09-29T12:17:46;94582.78;;;28.29;33.94
10652;BME280;5374;42.742;23.266;2022-09-29T12:20:37;94598.81;;;28.37;33.97
10652;BME280;5374;42.742;23.266;2022-09-29T12:23:27;94577.69;;;28.20;34.02
10652;BME280;5374;42.742;23.266;2022-09-29T12:26:19;94588.59;;;28.20;34.55
10652;BME280;5374;42.742;23.266;2022-09-29T12:29:16;94592.75;;;28.03;34.66
10652;BME280;5374;42.742;23.266;2022-09-29T12:32:10;94601.72;;;28.04;35.37
10652;BME280;5374;42.742;23.266;2022-09-29T12:35:05;94581.78;;;27.89;36.13
10652;BME280;5374;42.742;23.266;2022-09-29T12:38:05;94587.53;;;27.73;35.67
10652;BME280;5374;42.742;23.266;2022-09-29T12:41:05;94593.31;;;27.65;36.09
10652;BME280;5374;42.742;23.266;2022-09-29T12:44:05;94598.75;;;27.65;35.54
10652;BME280;5374;42.742;23.266;2022-09-29T12:47:01;94604.19;;;27.61;35.92
10652;BME280;5374;42.742;23.266;2022-09-29T12:49:58;94598.41;;;27.70;37.28
10652;BME280;5374;42.742;23.266;2022-09-29T12:52:51;94605.34;;;27.60;36.10
10652;BME280;5374;42.742;23.266;2022-09-29T12:55:47;94602.03;;;27.40;36.32
10652;BME280;5374;42.742;23.266;2022-09-29T12:58:39;94589.44;;;27.21;37.41
10652;BME280;5374;42.742;23.266;2022-09-29T13:01:30;94603.50;;;27.27;37.57
10652;BME280;5374;42.742;23.266;2022-09-29T13:04:39;94590.47;;;27.06;36.87
10652;BME280;5374;42.742;23.266;2022-09-29T13:10:57;94581.69;;;26.90;37.48
10652;BME280;5374;42.742;23.266;2022-09-29T13:13:59;94597.00;;;26.98;38.04
10652;BME280;5374;42.742;23.266;2022-09-29T13:16:57;94600.88;;;26.97;38.84
10652;BME280;5374;42.742;23.266;2022-09-29T13:20:15;94602.28;;;26.84;39.13
10652;BME280;5374;42.742;23.266;2022-09-29T13:23:33;94600.63;;;26.76;39.57
10652;BME280;5374;42.742;23.266;2022-09-29T13:26:35;94588.81;;;26.61;40.75
10652;BME280;5374;42.742;23.266;2022-09-29T13:29:26;94594.63;;;26.60;40.48
10652;BME280;5374;42.742;23.266;2022-09-29T13:32:17;94593.97;;;26.36;41.29
10652;BME280;5374;42.742;23.266;2022-09-29T13:35:11;94597.53;;;26.14;41.26
10652;BME280;5374;42.742;23.266;2022-09-29T13:38:02;94595.50;;;26.07;41.33
10652;BME280;5374;42.742;23.266;2022-09-29T13:41:11;94607.50;;;26.03;41.09
10652;BME280;5374;42.742;23.266;2022-09-29T13:44:19;94600.34;;;25.91;41.49
10652;BME280;5374;42.742;23.266;2022-09-29T13:47:30;94608.88;;;25.89;41.28
10652;BME280;5374;42.742;23.266;2022-09-29T13:50:41;94615.44;;;25.62;41.52
10652;BME280;5374;42.742;23.266;2022-09-29T13:53:36;94613.72;;;25.54;42.15
10652;BME280;5374;42.742;23.266;2022-09-29T13:56:23;94617.44;;;25.42;41.50
10652;BME280;5374;42.742;23.266;2022-09-29T13:59:13;94619.69;;;25.37;41.40
10652;BME280;5374;42.742;23.266;2022-09-29T14:02:12;94619.94;;;25.28;41.06
10652;BME280;5374;42.742;23.266;2022-09-29T14:05:35;94625.75;;;25.27;41.28
10652;BME280;5374;42.742;23.266;2022-09-29T14:08:37;94621.19;;;25.11;42.23
10652;BME280;5374;42.742;23.266;2022-09-29T14:11:28;94628.22;;;24.93;43.91
10652;BME280;5374;42.742;23.266;2022-09-29T14:14:20;94640.22;;;24.92;45.42
10652;BME280;5374;42.742;23.266;2022-09-29T14:17:12;94618.81;;;24.68;46.05
10652;BME280;5374;42.742;23.266;2022-09-29T14:20:12;94629.47;;;24.76;47.09
10652;BME280;5374;42.742;23.266;2022-09-29T14:23:02;94626.97;;;24.68;48.03
10652;BME280;5374;42.742;23.266;2022-09-29T14:25:50;94627.31;;;24.66;48.28
10652;BME280;5374;42.742;23.266;2022-09-29T14:28:40;94619.84;;;24.60;48.96
10652;BME280;5374;42.742;23.266;2022-09-29T14:31:29;94629.84;;;24.56;50.09
10652;BME280;5374;42.742;23.266;2022-09-29T14:34:19;94628.91;;;24.48;49.63
10652;BME280;5374;42.742;23.266;2022-09-29T14:37:13;94639.84;;;24.51;50.19
10652;BME280;5374;42.742;23.266;2022-09-29T14:40:06;94618.22;;;24.20;50.35
10652;BME280;5374;42.742;23.266;2022-09-29T14:43:13;94650.53;;;24.25;49.99
10652;BME280;5374;42.742;23.266;2022-09-29T14:46:19;94650.34;;;24.18;50.38
10652;BME280;5374;42.742;23.266;2022-09-29T14:49:47;94678.31;;;24.03;50.01
10652;BME280;5374;42.742;23.266;2022-09-29T14:53:05;94689.72;;;23.93;49.77
10652;BME280;5374;42.742;23.266;2022-09-29T14:56:03;94688.59;;;23.78;50.12
10652;BME280;5374;42.742;23.266;2022-09-29T14:59:05;94688.78;;;23.69;50.96
10652;BME280;5374;42.742;23.266;2022-09-29T15:02:17;94692.16;;;23.82;50.63
10652;BME280;5374;42.742;23.266;2022-09-29T15:05:13;94694.03;;;23.62;50.95
10652;BME280;5374;42.742;23.266;2022-09-29T15:08:21;94697.00;;;23.57;56.90
10652;BME280;5374;42.742;23.266;2022-09-29T15:11:28;94691.44;;;23.38;58.99
10652;BME280;5374;42.742;23.266;2022-09-29T15:14:22;94685.50;;;23.16;60.71
10652;BME280;5374;42.742;23.266;2022-09-29T15:17:16;94688.94;;;22.73;63.30
10652;BME280;5374;42.742;23.266;2022-09-29T15:20:09;94694.25;;;22.70;62.59
10652;BME280;5374;42.742;23.266;2022-09-29T15:23:15;94697.28;;;22.40;65.36
10652;BME280;5374;42.742;23.266;2022-09-29T15:26:13;94701.13;;;22.39;67.12
10652;BME280;5374;42.742;23.266;2022-09-29T15:29:05;94703.88;;;22.27;68.35